Home > Products > Valid Products > TAF

000
FTUS41 KGYX 031720
TAFCON
TAF
KCON 031720Z 0318/0418 VRB06KT P6SM OVC200
     FM032000 20005KT P6SM BKN120
     FM032300 16006KT 2SM -SN BR OVC015
      TEMPO 0407/0409 -FZRA
     FM040900 21005KT P6SM BKN025
     FM041100 23007KT P6SM SCT030 BKN100=



000
FTUS41 KGYX 031720
TAFPWM
TAF
KPWM 031720Z 0318/0418 28006KT P6SM OVC250
     FM032200 18007KT P6SM SCT030 OVC080
     FM040000 18010G18KT 3SM -SN BR OVC015
      TEMPO 0403/0407 3/4SM -SN BR OVC006
     FM040900 22010KT 4SM -SHRA BR OVC025
     FM041100 23007KT P6SM SCT040 BKN100=



000
FTUS41 KGYX 031720
TAFPSM
TAF
KPSM 031720Z 0318/0418 25005KT P6SM OVC200
     FM032000 17006KT P6SM BKN100
     FM032300 17009KT 3SM -SN BR OVC015
      TEMPO 0402/0406 3/4SM -SN BR OVC006
     FM040800 22010KT 5SM -SHRA BR OVC015
     FM041000 23010KT P6SM SCT030 BKN100=



000
FTUS41 KGYX 031720
TAFAUG
TAF
KAUG 031720Z 0318/0418 26007KT P6SM BKN250
     FM032000 19006KT P6SM BKN100
     FM040100 18009G17KT 3SM -SN BR OVC015
      TEMPO 0403/0407 3/4SM -SN BR OVC005
     FM041000 22009KT 5SM -SHSN BR OVC015
     FM041200 23007KT P6SM SCT030 BKN100=



000
FTUS41 KGYX 031720
TAFCON
TAF
KCON 031720Z 0318/0418 VRB06KT P6SM OVC200
     FM032000 20005KT P6SM BKN120
     FM032300 16006KT 2SM -SN BR OVC015
      TEMPO 0407/0409 -FZRA
     FM040900 21005KT P6SM BKN025
     FM041100 23007KT P6SM SCT030 BKN100=



000
FTUS41 KGYX 031720
TAFPWM
TAF
KPWM 031720Z 0318/0418 28006KT P6SM OVC250
     FM032200 18007KT P6SM SCT030 OVC080
     FM040000 18010G18KT 3SM -SN BR OVC015
      TEMPO 0403/0407 3/4SM -SN BR OVC006
     FM040900 22010KT 4SM -SHRA BR OVC025
     FM041100 23007KT P6SM SCT040 BKN100=



000
FTUS41 KGYX 031720
TAFAUG
TAF
KAUG 031720Z 0318/0418 26007KT P6SM BKN250
     FM032000 19006KT P6SM BKN100
     FM040100 18009G17KT 3SM -SN BR OVC015
      TEMPO 0403/0407 3/4SM -SN BR OVC005
     FM041000 22009KT 5SM -SHSN BR OVC015
     FM041200 23007KT P6SM SCT030 BKN100=



000
FTUS41 KGYX 031720
TAFLEB
TAF
KLEB 031720Z 0318/0418 00000KT P6SM BKN080
     FM032100 19009KT 2SM -SN BR OVC015
     FM040700 22007KT P6SM -SHSN OVC025
     FM041000 22008KT P6SM BKN040 BKN100
     FM041200 23007KT P6SM SCT040 BKN100=



000
FTUS41 KGYX 031720
TAFPSM
TAF
KPSM 031720Z 0318/0418 25005KT P6SM OVC200
     FM032000 17006KT P6SM BKN100
     FM032300 17009KT 3SM -SN BR OVC015
      TEMPO 0402/0406 3/4SM -SN BR OVC006
     FM040800 22010KT 5SM -SHRA BR OVC015
     FM041000 23010KT P6SM SCT030 BKN100=



000
FTUS41 KGYX 031134
TAFAUG
TAF
KAUG 031134Z 0312/0412 27006KT P6SM SKC
     FM032000 19006KT P6SM BKN100
     FM040100 18009G17KT 3SM -SN BR OVC015
      TEMPO 0403/0407 3/4SM -SN BR OVC005
     FM041000 22009KT 5SM -SHSN BR OVC015=



000
FTUS41 KGYX 031134
TAFCON
TAF
KCON 031134Z 0312/0412 32005KT P6SM SKC
     FM031900 20005KT P6SM BKN120
     FM032300 16006KT 2SM -SN BR OVC015
      TEMPO 0407/0409 -FZRA
     FM040900 21005KT P6SM BKN025=



000
FTUS41 KGYX 031134
TAFPWM
TAF
KPWM 031134Z 0312/0412 32004KT P6SM SKC
     FM031800 18007KT P6SM SCT100 BKN200
     FM040000 18010G18KT 3SM -SN BR OVC015
      TEMPO 0403/0407 3/4SM -SN BR OVC006
     FM040900 22010G18KT 4SM -SHRA BR OVC025=



000
FTUS41 KGYX 031134
TAFLEB
TAF
KLEB 031134Z 0312/0412 VRB03KT P6SM SKC
     FM031900 19006KT P6SM BKN080
     FM032100 19009KT 2SM -SN BR OVC015
     FM040900 22007KT P6SM -SHSN OVC025=



000
FTUS41 KGYX 031134
TAFCON
TAF
KCON 031134Z 0312/0412 32005KT P6SM SKC
     FM031900 20005KT P6SM BKN120
     FM032300 16006KT 2SM -SN BR OVC015
      TEMPO 0407/0409 -FZRA
     FM040900 21005KT P6SM BKN025=



000
FTUS41 KGYX 031134
TAFPSM
TAF
KPSM 031134Z 0312/0412 28006KT P6SM SKC
     FM031900 17006KT P6SM BKN100
     FM032300 17009KT 3SM -SN BR OVC015
      TEMPO 0402/0406 3/4SM -SN BR OVC006
     FM040900 22010KT 5SM -SHRA BR OVC015=



000
FTUS41 KGYX 031134
TAFAUG
TAF
KAUG 031134Z 0312/0412 27006KT P6SM SKC
     FM032000 19006KT P6SM BKN100
     FM040100 18009G17KT 3SM -SN BR OVC015
      TEMPO 0403/0407 3/4SM -SN BR OVC005
     FM041000 22009KT 5SM -SHSN BR OVC015=



000
FTUS41 KGYX 031134
TAFPSM
TAF
KPSM 031134Z 0312/0412 28006KT P6SM SKC
     FM031900 17006KT P6SM BKN100
     FM032300 17009KT 3SM -SN BR OVC015
      TEMPO 0402/0406 3/4SM -SN BR OVC006
     FM040900 22010KT 5SM -SHRA BR OVC015=



000
FTUS41 KGYX 031134
TAFPWM
TAF
KPWM 031134Z 0312/0412 32004KT P6SM SKC
     FM031800 18007KT P6SM SCT100 BKN200
     FM040000 18010G18KT 3SM -SN BR OVC015
      TEMPO 0403/0407 3/4SM -SN BR OVC006
     FM040900 22010G18KT 4SM -SHRA BR OVC025=



000
FTUS41 KGYX 031134
TAFLEB
TAF
KLEB 031134Z 0312/0412 VRB03KT P6SM SKC
     FM031900 19006KT P6SM BKN080
     FM032100 19009KT 2SM -SN BR OVC015
     FM040900 22007KT P6SM -SHSN OVC025=



000
FTUS41 KGYX 030857 AAA
TAFAUG
TAF AMD
KAUG 030857Z 0309/0406 28007KT P6SM SKC
     FM032000 19006KT P6SM BKN100
     FM040200 18009G17KT 3SM -SN BR OVC015=



000
FTUS41 KGYX 030857 AAA
TAFPSM
TAF AMD
KPSM 030857Z 0309/0406 28006KT P6SM SKC
     FM031900 17006KT P6SM BKN100
     FM032300 16009KT 3SM -SN BR OVC015=



000
FTUS41 KGYX 030857 AAA
TAFLEB
TAF AMD
KLEB 030857Z 0309/0406 VRB03KT P6SM SKC
     FM031900 19006KT P6SM BKN080
     FM032200 19009KT 3SM -SN BR OVC015=



000
FTUS41 KGYX 030857 AAA
TAFPWM
TAF AMD
KPWM 030857Z 0309/0406 32004KT P6SM SKC
     FM031800 18007KT P6SM SCT100 BKN200
     FM040100 18010G18KT 3SM -SN BR OVC020=



000
FTUS41 KGYX 030857 AAA
TAFCON
TAF AMD
KCON 030857Z 0309/0406 32005KT P6SM SKC
     FM031900 20005KT P6SM BKN120
     FM032300 16006KT 3SM -SN BR OVC015=



000
FTUS41 KGYX 030525
TAFPWM
TAF
KPWM 030525Z 0306/0406 32010G16KT P6SM SKC
     FM030800 30004KT P6SM SKC
     FM031800 18007KT P6SM SCT100 BKN200
     FM040100 18010G18KT 3SM -SN BR OVC020=



000
FTUS41 KGYX 030525
TAFLEB
TAF
KLEB 030525Z 0306/0406 32009G16KT P6SM FEW040
     FM030800 VRB03KT P6SM SKC
     FM031900 19006KT P6SM BKN080
     FM032200 19009KT 3SM -SN BR OVC015=



000
FTUS41 KGYX 030525
TAFCON
TAF
KCON 030525Z 0306/0406 32011G20KT P6SM FEW045
     FM030900 32004KT P6SM SKC
     FM031900 20005KT P6SM BKN120
     FM032300 16006KT 3SM -SN BR OVC015=



000
FTUS41 KGYX 030525
TAFAUG
TAF
KAUG 030525Z 0306/0406 31012G20KT P6SM FEW050
     FM030900 29006KT P6SM SKC
     FM032000 19006KT P6SM BKN100
     FM040200 18009G17KT 3SM -SN BR OVC015=



000
FTUS41 KGYX 030525
TAFPSM
TAF
KPSM 030525Z 0306/0406 30012G22KT P6SM SKC
     FM030800 29006KT P6SM SKC
     FM031900 17006KT P6SM BKN100
     FM032300 16009KT 3SM -SN BR OVC015=



000
FTUS41 KGYX 030525
TAFLEB
TAF
KLEB 030525Z 0306/0406 32009G16KT P6SM FEW040
     FM030800 VRB03KT P6SM SKC
     FM031900 19006KT P6SM BKN080
     FM032200 19009KT 3SM -SN BR OVC015=



000
FTUS41 KGYX 030525
TAFCON
TAF
KCON 030525Z 0306/0406 32011G20KT P6SM FEW045
     FM030900 32004KT P6SM SKC
     FM031900 20005KT P6SM BKN120
     FM032300 16006KT 3SM -SN BR OVC015=



000
FTUS41 KGYX 030525
TAFPSM
TAF
KPSM 030525Z 0306/0406 30012G22KT P6SM SKC
     FM030800 29006KT P6SM SKC
     FM031900 17006KT P6SM BKN100
     FM032300 16009KT 3SM -SN BR OVC015=



000
FTUS41 KGYX 030525
TAFPWM
TAF
KPWM 030525Z 0306/0406 32010G16KT P6SM SKC
     FM030800 30004KT P6SM SKC
     FM031800 18007KT P6SM SCT100 BKN200
     FM040100 18010G18KT 3SM -SN BR OVC020=



000
FTUS41 KGYX 030525
TAFAUG
TAF
KAUG 030525Z 0306/0406 31012G20KT P6SM FEW050
     FM030900 29006KT P6SM SKC
     FM032000 19006KT P6SM BKN100
     FM040200 18009G17KT 3SM -SN BR OVC015=



000
FTUS41 KGYX 022330
TAFCON
TAF
KCON 022330Z 0300/0324 31012G25KT P6SM BKN040
     FM030400 31008KT P6SM SKC
     FM032000 20006KT P6SM BKN100=



000
FTUS41 KGYX 022330
TAFLEB
TAF
KLEB 022330Z 0300/0324 29008G16KT P6SM BKN040
     FM030200 32008KT P6SM SCT050
     FM030600 00000KT P6SM SKC
     FM031700 20006KT P6SM BKN100=



000
FTUS41 KGYX 022330
TAFPSM
TAF
KPSM 022330Z 0300/0324 29014G22KT P6SM SCT050
     FM030500 29008KT P6SM SKC
     FM032000 18006KT P6SM BKN100=



000
FTUS41 KGYX 022330
TAFAUG
TAF
KAUG 022330Z 0300/0324 30012G21KT P6SM SCT050
     FM030700 29008KT P6SM SKC
     FM032000 18006KT P6SM BKN100=



000
FTUS41 KGYX 022330
TAFPWM
TAF
KPWM 022330Z 0300/0324 30015G25KT P6SM SCT060
     FM030500 29009KT P6SM SKC
     FM031800 19007KT P6SM SCT100=



000
FTUS41 KGYX 022059 AAA
TAFCON
TAF AMD
KCON 022059Z 0221/0318 31015G30KT P6SM BKN050
      TEMPO 0221/0222 3SM -SHSN
     FM030100 31010KT P6SM SKC
     FM030600 28004KT P6SM SKC=



000
FTUS41 KGYX 022059 AAA
TAFCON
TAF AMD
KCON 022059Z 0221/0318 31015G30KT P6SM BKN050
      TEMPO 0221/0222 3SM -SHSN
     FM030100 31010KT P6SM SKC
     FM030600 28004KT P6SM SKC=



000
FTUS41 KGYX 021720
TAFLEB
TAF
KLEB 021720Z 0218/0318 30012G23KT P6SM BKN040
      TEMPO 0218/0220 2SM -SHSN BKN025
     FM030100 32008KT P6SM SCT050
     FM030500 VRB03KT P6SM SKC=



000
FTUS41 KGYX 021720
TAFPSM
TAF
KPSM 021720Z 0218/0318 30014G24KT P6SM SCT050
     FM030200 30008KT P6SM SKC
     FM030600 28004KT P6SM SKC=



000
FTUS41 KGYX 021720
TAFPWM
TAF
KPWM 021720Z 0218/0318 30015G25KT P6SM SCT060
     FM030400 31010KT P6SM SKC
     FM030900 27005KT P6SM SKC=



000
FTUS41 KGYX 021720
TAFCON
TAF
KCON 021720Z 0218/0318 31014G24KT P6SM BKN050
     FM030100 31010KT P6SM SKC
     FM030600 28004KT P6SM SKC=



000
FTUS41 KGYX 021720
TAFAUG
TAF
KAUG 021720Z 0218/0318 31015G25KT P6SM BKN050
     FM022300 32011G20KT P6SM SCT050
     FM030700 29007KT P6SM SKC=



000
FTUS41 KGYX 021408 AAA
TAFLEB
TAF AMD
KLEB 021408Z 0214/0312 28006KT 4SM -SHSN BR OVC030
     FM021600 30012G23KT P6SM BKN040
     FM030100 32008KT P6SM SCT050
     FM030500 VRB03KT P6SM SKC=



000
FTUS41 KGYX 021122
TAFLEB
TAF
KLEB 021122Z 0212/0312 28006KT 5SM -SHSN BR OVC025
     FM021400 30012G23KT P6SM BKN040
     FM030100 32008KT P6SM SCT050
     FM030500 VRB03KT P6SM SKC=



000
FTUS41 KGYX 021122
TAFCON
TAF
KCON 021122Z 0212/0312 32004KT P6SM BKN070
     FM021500 31014G24KT P6SM SCT050
     FM030200 31010KT P6SM SKC
     FM030600 31004KT P6SM SKC=



000
FTUS41 KGYX 021122
TAFPWM
TAF
KPWM 021122Z 0212/0312 29008KT P6SM BKN060
     FM021500 30015G25KT P6SM SCT060
     FM030400 31010KT P6SM SKC=



000
FTUS41 KGYX 021122
TAFCON
TAF
KCON 021122Z 0212/0312 32004KT P6SM BKN070
     FM021500 31014G24KT P6SM SCT050
     FM030200 31010KT P6SM SKC
     FM030600 31004KT P6SM SKC=



000
FTUS41 KGYX 021122
TAFPWM
TAF
KPWM 021122Z 0212/0312 29008KT P6SM BKN060
     FM021500 30015G25KT P6SM SCT060
     FM030400 31010KT P6SM SKC=



000
FTUS41 KGYX 021122
TAFAUG
TAF
KAUG 021122Z 0212/0312 29006KT P6SM OVC060
      TEMPO 0212/0214 -SHSN
     FM021500 31015G25KT P6SM BKN050
     FM022300 32011G20KT P6SM SCT050
     FM030700 30007KT P6SM SKC=



000
FTUS41 KGYX 021122
TAFPSM
TAF
KPSM 021122Z 0212/0312 27007KT P6SM BKN080
     FM021500 30014G24KT P6SM SCT050
     FM030500 30008KT P6SM SKC=



000
FTUS41 KGYX 021122
TAFPSM
TAF
KPSM 021122Z 0212/0312 27007KT P6SM BKN080
     FM021500 30014G24KT P6SM SCT050
     FM030500 30008KT P6SM SKC=



000
FTUS41 KGYX 021122
TAFAUG
TAF
KAUG 021122Z 0212/0312 29006KT P6SM OVC060
      TEMPO 0212/0214 -SHSN
     FM021500 31015G25KT P6SM BKN050
     FM022300 32011G20KT P6SM SCT050
     FM030700 30007KT P6SM SKC=



000
FTUS41 KGYX 021122
TAFLEB
TAF
KLEB 021122Z 0212/0312 28006KT 5SM -SHSN BR OVC025
     FM021400 30012G23KT P6SM BKN040
     FM030100 32008KT P6SM SCT050
     FM030500 VRB03KT P6SM SKC=



000
FTUS41 KGYX 020902 AAA
TAFCON
TAF AMD
KCON 020902Z 0209/0306 VRB03KT 5SM BR SCT100
      TEMPO 0209/0212 3/4SM BR
     FM021200 31006KT P6SM BKN050
     FM021500 31014G24KT P6SM SCT050
     FM030200 31010KT P6SM SKC=



000
FTUS41 KGYX 020902 AAA
TAFPSM
TAF AMD
KPSM 020902Z 0209/0306 27005KT P6SM VCFG SCT120
     FM021400 30014G24KT P6SM SCT050
     FM030400 30010KT P6SM SKC=



000
FTUS41 KGYX 020902 AAA
TAFAUG
TAF AMD
KAUG 020902Z 0209/0306 29006KT P6SM OVC080
     FM021400 31015G25KT P6SM BKN050
     FM022300 32012G22KT P6SM SCT050=



000
FTUS41 KGYX 020902 AAA
TAFPWM
TAF AMD
KPWM 020902Z 0209/0306 29008KT P6SM BKN070
     FM021500 30015G25KT P6SM SCT070
     FM030400 31010KT P6SM SKC=



000
FTUS41 KGYX 020902 AAA
TAFLEB
TAF AMD
KLEB 020902Z 0209/0306 28005KT P6SM SCT035 BKN060
     FM021500 30012G23KT P6SM BKN050
     FM030100 32008KT P6SM SKC=



000
FTUS41 KGYX 020902 AAA
TAFPWM
TAF AMD
KPWM 020902Z 0209/0306 29008KT P6SM BKN070
     FM021500 30015G25KT P6SM SCT070
     FM030400 31010KT P6SM SKC=



000
FTUS41 KGYX 020902 AAA
TAFLEB
TAF AMD
KLEB 020902Z 0209/0306 28005KT P6SM SCT035 BKN060
     FM021500 30012G23KT P6SM BKN050
     FM030100 32008KT P6SM SKC=



000
FTUS41 KGYX 020902 AAA
TAFPSM
TAF AMD
KPSM 020902Z 0209/0306 27005KT P6SM VCFG SCT120
     FM021400 30014G24KT P6SM SCT050
     FM030400 30010KT P6SM SKC=



000
FTUS41 KGYX 020902 AAA
TAFCON
TAF AMD
KCON 020902Z 0209/0306 VRB03KT 5SM BR SCT100
      TEMPO 0209/0212 3/4SM BR
     FM021200 31006KT P6SM BKN050
     FM021500 31014G24KT P6SM SCT050
     FM030200 31010KT P6SM SKC=



000
FTUS41 KGYX 020902 AAA
TAFAUG
TAF AMD
KAUG 020902Z 0209/0306 29006KT P6SM OVC080
     FM021400 31015G25KT P6SM BKN050
     FM022300 32012G22KT P6SM SCT050=



000
FTUS41 KGYX 020527
TAFPWM
TAF
KPWM 020527Z 0206/0306 24004KT 4SM -SN BR OVC025
     FM020800 27005KT P6SM BKN030
     FM021200 30010KT P6SM SCT040
     FM021600 30015G25KT P6SM SKC
     FM030300 31010KT P6SM SKC=



000
FTUS41 KGYX 020527
TAFPSM
TAF
KPSM 020527Z 0206/0306 25004KT 4SM -SN BR OVC025
     FM020800 26005KT P6SM BKN050
     FM021400 30014G24KT P6SM FEW050
     FM030300 30010KT P6SM SKC=



000
FTUS41 KGYX 020527
TAFCON
TAF
KCON 020527Z 0206/0306 VRB03KT 5SM -SHSN BR OVC050
     FM020900 30004KT P6SM SCT050
     FM021400 30014G24KT P6SM FEW050
     FM030100 31010KT P6SM SKC=



000
FTUS41 KGYX 020527
TAFAUG
TAF
KAUG 020527Z 0206/0306 22005KT 1 1/2SM -SN BR OVC015
     FM020800 24005KT 4SM -SN BR OVC025
     FM021000 29007KT P6SM OVC040
     FM021500 31014G24KT P6SM SCT040=



000
FTUS41 KGYX 020527
TAFAUG
TAF
KAUG 020527Z 0206/0306 22005KT 1 1/2SM -SN BR OVC015
     FM020800 24005KT 4SM -SN BR OVC025
     FM021000 29007KT P6SM OVC040
     FM021500 31014G24KT P6SM SCT040=



000
FTUS41 KGYX 020527
TAFPSM
TAF
KPSM 020527Z 0206/0306 25004KT 4SM -SN BR OVC025
     FM020800 26005KT P6SM BKN050
     FM021400 30014G24KT P6SM FEW050
     FM030300 30010KT P6SM SKC=



000
FTUS41 KGYX 020527
TAFPWM
TAF
KPWM 020527Z 0206/0306 24004KT 4SM -SN BR OVC025
     FM020800 27005KT P6SM BKN030
     FM021200 30010KT P6SM SCT040
     FM021600 30015G25KT P6SM SKC
     FM030300 31010KT P6SM SKC=



000
FTUS41 KGYX 020527
TAFLEB
TAF
KLEB 020527Z 0206/0306 VRB03KT P6SM SCT008 BKN050
      TEMPO 0206/0210 BKN008
     FM021100 30007KT P6SM SCT050
     FM021600 30014G24KT P6SM FEW050
     FM030200 32007KT P6SM SKC=



000
FTUS41 KGYX 020527
TAFCON
TAF
KCON 020527Z 0206/0306 VRB03KT 5SM -SHSN BR OVC050
     FM020900 30004KT P6SM SCT050
     FM021400 30014G24KT P6SM FEW050
     FM030100 31010KT P6SM SKC=



000
FTUS41 KGYX 020527
TAFLEB
TAF
KLEB 020527Z 0206/0306 VRB03KT P6SM SCT008 BKN050
      TEMPO 0206/0210 BKN008
     FM021100 30007KT P6SM SCT050
     FM021600 30014G24KT P6SM FEW050
     FM030200 32007KT P6SM SKC=



000
FTUS41 KGYX 020413 AAA
TAFPSM
TAF AMD
KPSM 020413Z 0204/0224 VRB03KT 1 1/2SM -SN BR OVC020
     FM020600 25004KT 3SM -SN BR OVC025
     FM020800 27005KT P6SM BKN025
     FM021300 30014G24KT P6SM SCT050=



000
FTUS41 KGYX 020413 AAA
TAFPSM
TAF AMD
KPSM 020413Z 0204/0224 VRB03KT 1 1/2SM -SN BR OVC020
     FM020600 25004KT 3SM -SN BR OVC025
     FM020800 27005KT P6SM BKN025
     FM021300 30014G24KT P6SM SCT050=



000
FTUS41 KGYX 012337
TAFCON
TAF
KCON 012337Z 0200/0224 19004KT 3SM -SN BKN025 OVC040
      TEMPO 0200/0204 1SM -SN BKN015
     FM020500 22005KT P6SM BKN025
     FM021000 28006KT P6SM FEW025
     FM021500 30014G22KT P6SM SKC=



000
FTUS41 KGYX 012337
TAFPWM
TAF
KPWM 012337Z 0200/0224 19007KT 3SM -SN BKN025 OVC050
      TEMPO 0201/0205 1SM -SN BKN015
     FM020700 28005KT P6SM BKN025
     FM021200 29008KT P6SM FEW025
     FM021500 30014G23KT P6SM SKC=



000
FTUS41 KGYX 012337
TAFAUG
TAF
KAUG 012337Z 0200/0224 19008KT P6SM OVC050
     FM020100 19006KT 4SM -SN BKN025 OVC040
      TEMPO 0202/0206 1SM -SN BKN015
     FM020700 28005KT P6SM BKN025
     FM021400 31014G23KT P6SM SKC=



000
FTUS41 KGYX 012337
TAFLEB
TAF
KLEB 012337Z 0200/0224 19005KT 4SM -SN BR SCT025 OVC035
      TEMPO 0200/0204 1 1/2SM -SN BKN025
     FM020400 24006KT P6SM SCT025 BKN050
     FM021500 31011G20KT P6SM SKC=



000
FTUS41 KGYX 012337
TAFPSM
TAF
KPSM 012337Z 0200/0224 19006KT 3SM -SN OVC025
      TEMPO 0200/0204 3/4SM -SN BKN015
     FM020600 23005KT P6SM BKN025
     FM021200 28008KT P6SM FEW025
     FM021500 30015G23KT P6SM SKC=



000
FTUS41 KGYX 012337
TAFPSM
TAF
KPSM 012337Z 0200/0224 19006KT 3SM -SN OVC025
      TEMPO 0200/0204 3/4SM -SN BKN015
     FM020600 23005KT P6SM BKN025
     FM021200 28008KT P6SM FEW025
     FM021500 30015G23KT P6SM SKC=



000
FTUS41 KGYX 012337
TAFLEB
TAF
KLEB 012337Z 0200/0224 19005KT 4SM -SN BR SCT025 OVC035
      TEMPO 0200/0204 1 1/2SM -SN BKN025
     FM020400 24006KT P6SM SCT025 BKN050
     FM021500 31011G20KT P6SM SKC=



000
FTUS41 KGYX 012337
TAFPWM
TAF
KPWM 012337Z 0200/0224 19007KT 3SM -SN BKN025 OVC050
      TEMPO 0201/0205 1SM -SN BKN015
     FM020700 28005KT P6SM BKN025
     FM021200 29008KT P6SM FEW025
     FM021500 30014G23KT P6SM SKC=



000
FTUS41 KGYX 012337
TAFAUG
TAF
KAUG 012337Z 0200/0224 19008KT P6SM OVC050
     FM020100 19006KT 4SM -SN BKN025 OVC040
      TEMPO 0202/0206 1SM -SN BKN015
     FM020700 28005KT P6SM BKN025
     FM021400 31014G23KT P6SM SKC=



000
FTUS41 KGYX 012337
TAFCON
TAF
KCON 012337Z 0200/0224 19004KT 3SM -SN BKN025 OVC040
      TEMPO 0200/0204 1SM -SN BKN015
     FM020500 22005KT P6SM BKN025
     FM021000 28006KT P6SM FEW025
     FM021500 30014G22KT P6SM SKC=



000
FTUS41 KGYX 012249 AAA
TAFAUG
TAF AMD
KAUG 012249Z 0123/0218 19008KT P6SM OVC050
     FM020100 19004KT P6SM -SN OVC035
     FM020300 20003KT 2SM -SN BR OVC025
     FM020600 VRB03KT 4SM BR OVC025
     FM020900 27005KT P6SM BKN040
     FM021400 31013G25KT P6SM SCT040=



000
FTUS41 KGYX 012249 AAA
TAFCON
TAF AMD
KCON 012249Z 0123/0218 19004KT 2SM -SN OVC025
     FM020200 VRB03KT 1 1/2SM -SN BR OVC015
     FM020500 VRB03KT 4SM BR OVC025
     FM020800 VRB03KT P6SM BKN045
     FM021400 30011G21KT P6SM SCT045=



000
FTUS41 KGYX 012249 AAB
TAFLEB
TAF AMD
KLEB 012249Z 0123/0218 VRB03KT 4SM -SN BR OVC025
     FM020600 VRB03KT P6SM BKN045
     FM021400 31007G18KT P6SM SCT045=



000
FTUS41 KGYX 012249 AAA
TAFPSM
TAF AMD
KPSM 012249Z 0123/0218 19006KT 4SM -SN OVC025
     FM020100 19005KT 1 1/2SM -SN BR OVC015
     FM020600 VRB03KT 4SM BR OVC025
     FM020800 27004KT P6SM BKN045
     FM021400 29012G21KT P6SM SCT045=



000
FTUS41 KGYX 012115 AAA
TAFLEB
TAF AMD
KLEB 012115Z 0121/0218 VRB03KT P6SM -SN OVC050
     FM020300 VRB03KT 4SM BR OVC025
     FM020600 VRB03KT P6SM BKN045
     FM021400 31007G18KT P6SM SCT045=



000
FTUS41 KGYX 012115 AAA
TAFLEB
TAF AMD
KLEB 012115Z 0121/0218 VRB03KT P6SM -SN OVC050
     FM020300 VRB03KT 4SM BR OVC025
     FM020600 VRB03KT P6SM BKN045
     FM021400 31007G18KT P6SM SCT045=



000
FTUS41 KGYX 011720
TAFPWM
TAF
KPWM 011720Z 0118/0218 VRB03KT P6SM OVC100
     FM012100 20008KT P6SM OVC050
     FM020000 20006KT P6SM -SN OVC025
     FM020300 22005KT 2SM -SN BR OVC015
     FM020600 23003KT 4SM BR OVC025
     FM020900 28005KT P6SM BKN045
     FM021500 29014G24KT P6SM SCT045=



000
FTUS41 KGYX 011720
TAFCON
TAF
KCON 011720Z 0118/0218 00000KT P6SM BKN060
     FM012300 19004KT P6SM -SN OVC025
     FM020200 VRB03KT 1 1/2SM -SN BR OVC015
     FM020500 VRB03KT 4SM BR OVC025
     FM020800 VRB03KT P6SM BKN045
     FM021400 30011G21KT P6SM SCT045=



000
FTUS41 KGYX 011720
TAFPWM
TAF
KPWM 011720Z 0118/0218 VRB03KT P6SM OVC100
     FM012100 20008KT P6SM OVC050
     FM020000 20006KT P6SM -SN OVC025
     FM020300 22005KT 2SM -SN BR OVC015
     FM020600 23003KT 4SM BR OVC025
     FM020900 28005KT P6SM BKN045
     FM021500 29014G24KT P6SM SCT045=



000
FTUS41 KGYX 011720
TAFAUG
TAF
KAUG 011720Z 0118/0218 VRB03KT P6SM OVC100
     FM012100 18004KT P6SM OVC050
     FM020100 19004KT P6SM -SN OVC035
     FM020300 20003KT 2SM -SN BR OVC025
     FM020600 VRB03KT 4SM BR OVC025
     FM020900 27005KT P6SM BKN040
     FM021400 31013G25KT P6SM SCT040=



000
FTUS41 KGYX 011720
TAFLEB
TAF
KLEB 011720Z 0118/0218 VRB03KT 2SM -SN BR OVC025
     FM020300 VRB03KT 4SM BR OVC025
     FM020600 VRB03KT P6SM BKN045
     FM021400 31007G18KT P6SM SCT045=



000
FTUS41 KGYX 011720
TAFCON
TAF
KCON 011720Z 0118/0218 00000KT P6SM BKN060
     FM012300 19004KT P6SM -SN OVC025
     FM020200 VRB03KT 1 1/2SM -SN BR OVC015
     FM020500 VRB03KT 4SM BR OVC025
     FM020800 VRB03KT P6SM BKN045
     FM021400 30011G21KT P6SM SCT045=



000
FTUS41 KGYX 011720
TAFPSM
TAF
KPSM 011720Z 0118/0218 VRB03KT P6SM OVC060
     FM012300 19006KT P6SM -SN OVC025
     FM020100 19005KT 1 1/2SM -SN BR OVC015
     FM020600 VRB03KT 4SM BR OVC025
     FM020800 27004KT P6SM BKN045
     FM021400 29012G21KT P6SM SCT045=



000
FTUS41 KGYX 011120
TAFPSM
TAF
KPSM 011120Z 0112/0212 24003KT P6SM SCT200
     FM011500 22005KT P6SM SCT060 OVC100
     FM012200 18005KT 3SM -SN BKN025 OVC050
     FM020100 20006KT 1 1/2SM -SN BR BKN015 OVC025=



000
FTUS41 KGYX 011120
TAFCON
TAF
KCON 011120Z 0112/0212 00000KT P6SM SCT200
     FM011500 19005KT P6SM SCT060 OVC100
     FM012100 18004KT 4SM -SN BR BKN025 OVC050
     FM020100 VRB03KT 2SM -SN BR SCT015 OVC025=



000
FTUS41 KGYX 011120
TAFPWM
TAF
KPWM 011120Z 0112/0212 00000KT P6SM SCT200
     FM011200 VRB03KT P6SM SCT100 BKN200
     FM011600 20006KT P6SM SCT060 OVC100
     FM020100 20007KT 3SM -SN BR BKN025 OVC050=



000
FTUS41 KGYX 011120
TAFAUG
TAF
KAUG 011120Z 0112/0212 00000KT P6SM SCT200
     FM011700 20005KT P6SM SCT060 OVC100
     FM020200 20005KT 5SM -SN BKN025 OVC050
     FM020500 VRB03KT 2SM -SN BR SCT015 OVC025=



000
FTUS41 KGYX 011120
TAFLEB
TAF
KLEB 011120Z 0112/0212 00000KT P6SM SCT200
     FM011400 00000KT P6SM SCT060 OVC100
     FM011700 18007KT P6SM SCT025 OVC050
     FM012000 18007KT 4SM -SN BKN025 OVC040
     FM020200 VRB03KT 2SM -SN BR SCT015 OVC025=



000
FTUS41 KGYX 010930 AAA
TAFAUG
TAF AMD
KAUG 010930Z 0110/0206 00000KT P6SM SCT200
     FM011700 20005KT P6SM SCT060 OVC100
     FM020200 20005KT 5SM -SN BKN025 OVC050
     FM020500 VRB03KT 2SM -SN BR SCT015 OVC025=



000
FTUS41 KGYX 010930 AAA
TAFCON
TAF AMD
KCON 010930Z 0110/0206 00000KT P6SM SCT200
     FM011500 19005KT P6SM SCT060 OVC100
     FM012100 18004KT 3SM -SN BR BKN025 OVC050
     FM020100 VRB03KT 2SM -SN BR SCT015 OVC025=



000
FTUS41 KGYX 010930 AAA
TAFPSM
TAF AMD
KPSM 010930Z 0110/0206 24003KT P6SM SCT200
     FM011500 22005KT P6SM SCT060 OVC100
     FM012200 18005KT 3SM -SN BKN025 OVC050
     FM020100 20006KT 1 1/2SM -SN BR BKN015 OVC025=



000
FTUS41 KGYX 010930 AAA
TAFLEB
TAF AMD
KLEB 010930Z 0110/0206 00000KT P6SM SCT200
     FM011400 00000KT P6SM SCT060 OVC100
     FM011700 18007KT P6SM SCT025 OVC050
     FM012000 18007KT 4SM -SN BKN025 OVC040
     FM020200 VRB03KT 2SM -SN BR SCT015 OVC025=



000
FTUS41 KGYX 010929 AAA
TAFPWM
TAF AMD
KPWM 010929Z 0109/0206 00000KT P6SM SCT200
     FM011200 VRB03KT P6SM SCT100 BKN200
     FM011600 20006KT P6SM SCT060 OVC100
     FM020100 20007KT 3SM -SN BR BKN025 OVC050=



000
FTUS41 KGYX 010524
TAFLEB
TAF
KLEB 010524Z 0106/0206 00000KT P6SM SCT200
     FM011400 00000KT P6SM SCT060 OVC100
     FM011700 18007KT P6SM SCT025 OVC050
     FM012000 18007KT 4SM -SN BKN025 OVC040
     FM020200 VRB03KT 2SM -SN BR SCT015 OVC025=



000
FTUS41 KGYX 010524
TAFPSM
TAF
KPSM 010524Z 0106/0206 24003KT P6SM SCT200
     FM011500 22005KT P6SM SCT060 OVC100
     FM012200 18005KT 3SM -SN BKN025 OVC050
     FM020100 20006KT 1 1/2SM -SN BR BKN015 OVC025=



000
FTUS41 KGYX 010524
TAFCON
TAF
KCON 010524Z 0106/0206 00000KT P6SM SCT200
     FM011500 19005KT P6SM SCT060 OVC100
     FM012100 18004KT 3SM -SN BR BKN025 OVC050
     FM020100 VRB03KT 2SM -SN BR SCT015 OVC025=



000
FTUS41 KGYX 010524
TAFPWM
TAF
KPWM 010524Z 0106/0206 00000KT P6SM SCT200
     FM011200 VRB03KT P6SM SCT100 BKN200
     FM011600 20006KT P6SM SCT060 OVC100
     FM020100 20007KT 3SM -SN BR BKN025 OVC050=



000
FTUS41 KGYX 010524
TAFAUG
TAF
KAUG 010524Z 0106/0206 00000KT P6SM SCT200
     FM011700 20005KT P6SM SCT060 OVC100
     FM020200 20005KT 5SM -SN BKN025 OVC050
     FM020500 VRB03KT 2SM -SN BR SCT015 OVC025=



000
FTUS41 KGYX 010524
TAFLEB
TAF
KLEB 010524Z 0106/0206 00000KT P6SM SCT200
     FM011400 00000KT P6SM SCT060 OVC100
     FM011700 18007KT P6SM SCT025 OVC050
     FM012000 18007KT 4SM -SN BKN025 OVC040
     FM020200 VRB03KT 2SM -SN BR SCT015 OVC025=



000
FTUS41 KGYX 010524
TAFPSM
TAF
KPSM 010524Z 0106/0206 24003KT P6SM SCT200
     FM011500 22005KT P6SM SCT060 OVC100
     FM012200 18005KT 3SM -SN BKN025 OVC050
     FM020100 20006KT 1 1/2SM -SN BR BKN015 OVC025=



000
FTUS41 KGYX 010524
TAFAUG
TAF
KAUG 010524Z 0106/0206 00000KT P6SM SCT200
     FM011700 20005KT P6SM SCT060 OVC100
     FM020200 20005KT 5SM -SN BKN025 OVC050
     FM020500 VRB03KT 2SM -SN BR SCT015 OVC025=



000
FTUS41 KGYX 010524
TAFCON
TAF
KCON 010524Z 0106/0206 00000KT P6SM SCT200
     FM011500 19005KT P6SM SCT060 OVC100
     FM012100 18004KT 3SM -SN BR BKN025 OVC050
     FM020100 VRB03KT 2SM -SN BR SCT015 OVC025=



000
FTUS41 KGYX 010524
TAFPWM
TAF
KPWM 010524Z 0106/0206 00000KT P6SM SCT200
     FM011200 VRB03KT P6SM SCT100 BKN200
     FM011600 20006KT P6SM SCT060 OVC100
     FM020100 20007KT 3SM -SN BR BKN025 OVC050=



000
FTUS41 KGYX 282320
TAFCON
TAF
KCON 282320Z 0100/0124 00000KT P6SM SKC
     FM011500 19005KT P6SM BKN050 OVC100
     FM012000 18004KT 3SM -SN BR BKN025 OVC050=



000
FTUS41 KGYX 282320
TAFCON
TAF
KCON 282320Z 0100/0124 00000KT P6SM SKC
     FM011500 19005KT P6SM BKN050 OVC100
     FM012000 18004KT 3SM -SN BR BKN025 OVC050=



000
FTUS41 KGYX 282320
TAFPWM
TAF
KPWM 282320Z 0100/0124 00000KT P6SM SKC
     FM011600 20006KT P6SM BKN050 OVC100
     FM012300 20007KT 4SM -SN BR BKN025 OVC050=



000
FTUS41 KGYX 282320
TAFAUG
TAF
KAUG 282320Z 0100/0124 20004KT P6SM SKC
     FM011600 20005KT P6SM BKN050 OVC100
     FM012300 20005KT 5SM -SN BKN025 OVC050=



000
FTUS41 KGYX 282320
TAFLEB
TAF
KLEB 282320Z 0100/0124 00000KT P6SM SKC
     FM011200 00000KT P6SM BKN050 OVC100
     FM011800 18005KT 5SM -SN BKN025 OVC050=



000
FTUS41 KGYX 282320
TAFPSM
TAF
KPSM 282320Z 0100/0124 24004KT P6SM SKC
     FM011300 22005KT P6SM BKN050 OVC100
     FM012100 18005KT 4SM -SN BKN025 OVC050=



000
FTUS41 KGYX 282320
TAFPWM
TAF
KPWM 282320Z 0100/0124 00000KT P6SM SKC
     FM011600 20006KT P6SM BKN050 OVC100
     FM012300 20007KT 4SM -SN BR BKN025 OVC050=



000
FTUS41 KGYX 282320
TAFAUG
TAF
KAUG 282320Z 0100/0124 20004KT P6SM SKC
     FM011600 20005KT P6SM BKN050 OVC100
     FM012300 20005KT 5SM -SN BKN025 OVC050=



000
FTUS41 KGYX 282320
TAFLEB
TAF
KLEB 282320Z 0100/0124 00000KT P6SM SKC
     FM011200 00000KT P6SM BKN050 OVC100
     FM011800 18005KT 5SM -SN BKN025 OVC050=



000
FTUS41 KGYX 282320
TAFPSM
TAF
KPSM 282320Z 0100/0124 24004KT P6SM SKC
     FM011300 22005KT P6SM BKN050 OVC100
     FM012100 18005KT 4SM -SN BKN025 OVC050=



    US Dept of Commerce
    National Oceanic and Atmospheric Administration
    National Weather Service
    1325 East West Highway
    Silver Spring, MD 20910
    Page Author: NWS Internet Services Team
Disclaimer
Information Quality
Credits
Glossary
Privacy Policy
Freedom of Information Act (FOIA)
About Us
Career Opportunities